Key Field Meridian US
ICAO: KMEI
IATA: MEI
Category: Medium
Scheduled Services: Yes

Elevation: 297 ft
TransAlt. 18000 ft.

Airport Communications:
MERIDIAN APP/DEP:120.5
ATIS:126.475
CTAF:119.8
GCA:125.125
GND:121.9
ANG OPS COMD POST:29.23
GREENWOOD RDO:122.2
TWR:119.8
UNICOM:122.95

KMEI Zoom In..

Runways:

(A) RW 01 length 10003 ft width 150 ft
ILS 110.10 / hdg 11

(B) RW 04 length 4599 ft width 150 ft
---- / hdg 46

(C) RW 19 length 10003 ft width 150 ft
ILS 111.35 / hdg 191

(D) RW 22 length 4599 ft width 150 ft
---- / hdg 226

Location; KMEI
Day. 21 / Time. 05.58 Zulu
* Altimeter: 29.93
* Temperature: 28° c. 82.4°f.
* Wind from: 200° Speed 03 kn.
Dewpoint: 26° c.
Visibility: 9 Statute Miles.
Clouds: Clear (automated report).

KMEI 210558Z AUTO 20003KT 9SM R01/4000VP6000FT CLR 28/26 A2993 RMK AO2 SLP129 T02780261 10328 20278 403610250 53001


Wind From 200°
Speed 03 kn.

 
 
jpsmedia.com for Web Design worldairports.se 2018   terms of use